Terminal Aerodrome Forecast
Issued by NWS

Home | Current Version | Previous Version | Text Only | Print | Product List | Glossary On
Versions: 1 2 3 4 5 6 7 8 9 10 11 12 13
000
FTUS42 TJSJ 202339
TAFJBQ
TAF
TJBQ 202339Z 2100/2124 04006KT P6SM SCT030
     FM211400 05011KT P6SM FEW030
     FM212300 08006KT P6SM SCT025
      AMD NOT SKED 2102/2111=

USA.gov is the U.S. government's official web portal to all federal, state and local government web resources and services.